Bristol, South Dakota
Current Conditions -  °F | °C
As of 6:07 AM on Friday 24 Oct 2014 (Local Time) from KABR Reporting Station
Haze Haze  
Wind Chill: 34°   Ceiling: Unl
Heat Index: 34°   Visibility: 5mi
Dew Point: 33°   Wind: 3mph
Humidity: 96%   Direction: 240°WSW
Pressure: 29.84"   Gusts: NA
Location:  45.34°N, 97.75°W
Report Text: KABR 241107Z AUTO 24003KT 5SM BR CLR 01/01 A2984 RMK AO2 T00110006
Loading
Personal Weather Stations






























Interactive Weather Map
Tropical Storm Tracking
New forecast layout! Learn more

10-Day Weather Forecast

Advertisements
Track Severe Weather on mobile